sensor_id;sensor_type;location;lat;lon;timestamp;pressure;altitude;pressure_sealevel;temperature;humidity
8075;BME280;4080;42.676;23.372;2023-05-29T00:00:40;94893.25;;;14.85;100.00
8075;BME280;4080;42.676;23.372;2023-05-29T00:03:07;94898.19;;;14.78;100.00
8075;BME280;4080;42.676;23.372;2023-05-29T00:05:34;94892.50;;;14.71;100.00
8075;BME280;4080;42.676;23.372;2023-05-29T00:08:01;94906.84;;;14.70;100.00
8075;BME280;4080;42.676;23.372;2023-05-29T00:10:28;94898.59;;;14.71;100.00
8075;BME280;4080;42.676;23.372;2023-05-29T00:12:56;94903.91;;;14.71;100.00
8075;BME280;4080;42.676;23.372;2023-05-29T00:15:23;94898.97;;;14.65;100.00
8075;BME280;4080;42.676;23.372;2023-05-29T00:17:51;94906.84;;;14.56;100.00
8075;BME280;4080;42.676;23.372;2023-05-29T00:20:18;94896.72;;;14.44;100.00
8075;BME280;4080;42.676;23.372;2023-05-29T00:22:44;94864.91;;;14.12;100.00
8075;BME280;4080;42.676;23.372;2023-05-29T00:25:11;94901.97;;;14.30;100.00
8075;BME280;4080;42.676;23.372;2023-05-29T00:27:38;94906.78;;;14.28;100.00
8075;BME280;4080;42.676;23.372;2023-05-29T00:30:06;94906.56;;;14.25;100.00
8075;BME280;4080;42.676;23.372;2023-05-29T00:32:33;94897.94;;;14.19;100.00
8075;BME280;4080;42.676;23.372;2023-05-29T00:35:01;94894.09;;;14.12;100.00
8075;BME280;4080;42.676;23.372;2023-05-29T00:37:28;94892.03;;;14.09;100.00
8075;BME280;4080;42.676;23.372;2023-05-29T00:39:54;94873.13;;;13.96;100.00
8075;BME280;4080;42.676;23.372;2023-05-29T00:42:22;94888.75;;;13.98;100.00
8075;BME280;4080;42.676;23.372;2023-05-29T00:44:48;94894.22;;;13.88;100.00
8075;BME280;4080;42.676;23.372;2023-05-29T00:47:15;94892.75;;;13.82;100.00
8075;BME280;4080;42.676;23.372;2023-05-29T00:49:42;94887.28;;;13.73;100.00
8075;BME280;4080;42.676;23.372;2023-05-29T00:52:11;94891.59;;;13.69;100.00
8075;BME280;4080;42.676;23.372;2023-05-29T00:54:39;94889.53;;;13.66;100.00
8075;BME280;4080;42.676;23.372;2023-05-29T00:57:06;94883.22;;;13.62;100.00
8075;BME280;4080;42.676;23.372;2023-05-29T00:59:33;94887.47;;;13.63;100.00
8075;BME280;4080;42.676;23.372;2023-05-29T01:02:01;94883.53;;;13.60;100.00
8075;BME280;4080;42.676;23.372;2023-05-29T01:04:28;94882.16;;;13.63;100.00
8075;BME280;4080;42.676;23.372;2023-05-29T01:06:58;94887.97;;;13.65;100.00
8075;BME280;4080;42.676;23.372;2023-05-29T01:09:29;94886.44;;;13.78;100.00
8075;BME280;4080;42.676;23.372;2023-05-29T01:12:03;94879.38;;;13.87;100.00
8075;BME280;4080;42.676;23.372;2023-05-29T01:14:43;94879.09;;;13.88;100.00
8075;BME280;4080;42.676;23.372;2023-05-29T01:17:17;94886.00;;;14.03;100.00
8075;BME280;4080;42.676;23.372;2023-05-29T01:20:04;94890.06;;;14.14;100.00
8075;BME280;4080;42.676;23.372;2023-05-29T01:23:04;94891.25;;;14.22;100.00
8075;BME280;4080;42.676;23.372;2023-05-29T01:25:46;94886.13;;;14.25;100.00
8075;BME280;4080;42.676;23.372;2023-05-29T01:28:20;94891.94;;;14.14;100.00
8075;BME280;4080;42.676;23.372;2023-05-29T01:30:48;94884.84;;;14.09;100.00
8075;BME280;4080;42.676;23.372;2023-05-29T01:33:16;94886.00;;;14.03;100.00
8075;BME280;4080;42.676;23.372;2023-05-29T01:35:42;94881.88;;;13.97;100.00
8075;BME280;4080;42.676;23.372;2023-05-29T01:38:09;94881.38;;;13.95;100.00
8075;BME280;4080;42.676;23.372;2023-05-29T01:40:36;94875.16;;;13.86;100.00
8075;BME280;4080;42.676;23.372;2023-05-29T01:43:03;94880.63;;;13.76;100.00
8075;BME280;4080;42.676;23.372;2023-05-29T01:45:31;94878.84;;;13.71;100.00
8075;BME280;4080;42.676;23.372;2023-05-29T01:47:58;94886.97;;;13.61;100.00
8075;BME280;4080;42.676;23.372;2023-05-29T01:50:25;94884.69;;;13.54;100.00
8075;BME280;4080;42.676;23.372;2023-05-29T01:52:54;94885.56;;;13.50;100.00
8075;BME280;4080;42.676;23.372;2023-05-29T01:55:20;94875.09;;;13.40;100.00
8075;BME280;4080;42.676;23.372;2023-05-29T01:57:48;94875.88;;;13.40;100.00
8075;BME280;4080;42.676;23.372;2023-05-29T02:00:16;94881.53;;;13.33;100.00
8075;BME280;4080;42.676;23.372;2023-05-29T02:02:45;94879.84;;;13.24;100.00
8075;BME280;4080;42.676;23.372;2023-05-29T02:05:12;94872.47;;;13.16;100.00
8075;BME280;4080;42.676;23.372;2023-05-29T02:07:39;94873.63;;;13.10;100.00
8075;BME280;4080;42.676;23.372;2023-05-29T02:10:06;94874.72;;;13.09;100.00
8075;BME280;4080;42.676;23.372;2023-05-29T02:12:32;94868.63;;;13.08;100.00
8075;BME280;4080;42.676;23.372;2023-05-29T02:14:59;94874.78;;;13.03;100.00
8075;BME280;4080;42.676;23.372;2023-05-29T02:17:26;94870.84;;;13.01;100.00
8075;BME280;4080;42.676;23.372;2023-05-29T02:19:54;94873.22;;;13.02;100.00
8075;BME280;4080;42.676;23.372;2023-05-29T02:22:21;94873.72;;;13.04;100.00
8075;BME280;4080;42.676;23.372;2023-05-29T02:24:47;94867.06;;;13.07;100.00
8075;BME280;4080;42.676;23.372;2023-05-29T02:27:14;94869.19;;;13.05;100.00
8075;BME280;4080;42.676;23.372;2023-05-29T02:29:41;94873.94;;;13.08;100.00
8075;BME280;4080;42.676;23.372;2023-05-29T02:32:07;94875.72;;;13.13;100.00
8075;BME280;4080;42.676;23.372;2023-05-29T02:34:34;94880.13;;;13.22;100.00
8075;BME280;4080;42.676;23.372;2023-05-29T02:37:02;94877.69;;;13.26;100.00
8075;BME280;4080;42.676;23.372;2023-05-29T02:39:29;94884.34;;;13.23;100.00
8075;BME280;4080;42.676;23.372;2023-05-29T02:41:56;94881.69;;;13.23;100.00
8075;BME280;4080;42.676;23.372;2023-05-29T02:44:22;94882.69;;;13.27;100.00
8075;BME280;4080;42.676;23.372;2023-05-29T02:46:49;94886.91;;;13.28;100.00
8075;BME280;4080;42.676;23.372;2023-05-29T02:49:16;94886.91;;;13.28;100.00
8075;BME280;4080;42.676;23.372;2023-05-29T02:51:42;94887.13;;;13.32;100.00
8075;BME280;4080;42.676;23.372;2023-05-29T02:54:10;94892.56;;;13.41;100.00
8075;BME280;4080;42.676;23.372;2023-05-29T02:56:37;94887.13;;;13.51;100.00
8075;BME280;4080;42.676;23.372;2023-05-29T02:59:04;94868.13;;;13.44;100.00
8075;BME280;4080;42.676;23.372;2023-05-29T03:01:31;94876.59;;;13.46;100.00
8075;BME280;4080;42.676;23.372;2023-05-29T03:03:58;94888.22;;;13.50;100.00
8075;BME280;4080;42.676;23.372;2023-05-29T03:06:24;94891.34;;;13.52;100.00
8075;BME280;4080;42.676;23.372;2023-05-29T03:08:51;94892.06;;;13.57;100.00
8075;BME280;4080;42.676;23.372;2023-05-29T03:11:19;94896.06;;;13.55;100.00
8075;BME280;4080;42.676;23.372;2023-05-29T03:13:49;94887.72;;;13.48;100.00
8075;BME280;4080;42.676;23.372;2023-05-29T03:16:15;94886.69;;;13.44;100.00
8075;BME280;4080;42.676;23.372;2023-05-29T03:18:42;94887.25;;;13.41;100.00
8075;BME280;4080;42.676;23.372;2023-05-29T03:21:09;94892.78;;;13.44;100.00
8075;BME280;4080;42.676;23.372;2023-05-29T03:23:36;94884.13;;;13.39;100.00
8075;BME280;4080;42.676;23.372;2023-05-29T03:26:02;94879.47;;;13.30;100.00
8075;BME280;4080;42.676;23.372;2023-05-29T03:28:30;94892.06;;;13.39;100.00
8075;BME280;4080;42.676;23.372;2023-05-29T03:30:57;94888.69;;;13.52;100.00
8075;BME280;4080;42.676;23.372;2023-05-29T03:33:24;94898.56;;;13.65;100.00
8075;BME280;4080;42.676;23.372;2023-05-29T03:35:50;94910.78;;;13.80;100.00
8075;BME280;4080;42.676;23.372;2023-05-29T03:38:17;94910.03;;;13.93;100.00
8075;BME280;4080;42.676;23.372;2023-05-29T03:40:44;94916.69;;;14.09;100.00
8075;BME280;4080;42.676;23.372;2023-05-29T03:43:10;94922.97;;;14.27;100.00
8075;BME280;4080;42.676;23.372;2023-05-29T03:45:38;94927.41;;;14.32;100.00
8075;BME280;4080;42.676;23.372;2023-05-29T03:48:05;94903.63;;;14.13;100.00
8075;BME280;4080;42.676;23.372;2023-05-29T03:50:32;94918.16;;;14.29;100.00
8075;BME280;4080;42.676;23.372;2023-05-29T03:52:58;94921.22;;;14.36;100.00
8075;BME280;4080;42.676;23.372;2023-05-29T03:55:26;94914.69;;;14.47;100.00
8075;BME280;4080;42.676;23.372;2023-05-29T03:57:53;94920.59;;;14.58;100.00
8075;BME280;4080;42.676;23.372;2023-05-29T04:00:20;94920.78;;;14.62;100.00
8075;BME280;4080;42.676;23.372;2023-05-29T04:02:49;94918.44;;;14.60;100.00
8075;BME280;4080;42.676;23.372;2023-05-29T04:05:15;94930.72;;;14.83;100.00
8075;BME280;4080;42.676;23.372;2023-05-29T04:07:42;94935.94;;;15.52;100.00
8075;BME280;4080;42.676;23.372;2023-05-29T04:10:09;94897.72;;;15.84;100.00
8075;BME280;4080;42.676;23.372;2023-05-29T04:12:36;94938.72;;;16.59;100.00
8075;BME280;4080;42.676;23.372;2023-05-29T04:15:03;94950.53;;;17.15;100.00
8075;BME280;4080;42.676;23.372;2023-05-29T04:17:30;94949.03;;;17.65;100.00
8075;BME280;4080;42.676;23.372;2023-05-29T04:19:58;94958.63;;;18.01;100.00
8075;BME280;4080;42.676;23.372;2023-05-29T04:22:28;94948.06;;;18.30;100.00
8075;BME280;4080;42.676;23.372;2023-05-29T04:24:56;94924.41;;;18.12;100.00
8075;BME280;4080;42.676;23.372;2023-05-29T04:27:22;94956.09;;;18.05;100.00
8075;BME280;4080;42.676;23.372;2023-05-29T04:29:49;94957.38;;;17.90;100.00
8075;BME280;4080;42.676;23.372;2023-05-29T04:32:16;94920.16;;;17.59;100.00
8075;BME280;4080;42.676;23.372;2023-05-29T04:34:43;94960.47;;;17.66;100.00
8075;BME280;4080;42.676;23.372;2023-05-29T04:37:11;94967.38;;;17.58;100.00
8075;BME280;4080;42.676;23.372;2023-05-29T04:39:38;94959.06;;;17.51;100.00
8075;BME280;4080;42.676;23.372;2023-05-29T04:42:23;94957.81;;;17.49;100.00
8075;BME280;4080;42.676;23.372;2023-05-29T04:44:50;94973.81;;;17.66;100.00
8075;BME280;4080;42.676;23.372;2023-05-29T04:47:18;94963.78;;;17.72;100.00
8075;BME280;4080;42.676;23.372;2023-05-29T04:49:45;94951.84;;;17.60;100.00
8075;BME280;4080;42.676;23.372;2023-05-29T04:52:16;94972.44;;;17.68;100.00
8075;BME280;4080;42.676;23.372;2023-05-29T04:54:43;94976.47;;;17.66;100.00
8075;BME280;4080;42.676;23.372;2023-05-29T04:57:10;94972.88;;;17.62;100.00
8075;BME280;4080;42.676;23.372;2023-05-29T04:59:37;94972.44;;;17.68;100.00
8075;BME280;4080;42.676;23.372;2023-05-29T05:02:04;94986.56;;;17.69;100.00
8075;BME280;4080;42.676;23.372;2023-05-29T05:04:32;94989.81;;;17.66;100.00
8075;BME280;4080;42.676;23.372;2023-05-29T05:06:59;94995.16;;;17.66;100.00
8075;BME280;4080;42.676;23.372;2023-05-29T05:09:27;94994.41;;;17.74;100.00
8075;BME280;4080;42.676;23.372;2023-05-29T05:11:54;94995.84;;;17.89;100.00
8075;BME280;4080;42.676;23.372;2023-05-29T05:14:21;94998.19;;;17.90;100.00
8075;BME280;4080;42.676;23.372;2023-05-29T05:16:48;95005.44;;;18.07;100.00
8075;BME280;4080;42.676;23.372;2023-05-29T05:19:15;95000.41;;;18.14;100.00
8075;BME280;4080;42.676;23.372;2023-05-29T05:21:41;95001.66;;;18.17;100.00
8075;BME280;4080;42.676;23.372;2023-05-29T05:24:08;95000.84;;;18.25;100.00
8075;BME280;4080;42.676;23.372;2023-05-29T05:26:36;95007.59;;;18.31;100.00
8075;BME280;4080;42.676;23.372;2023-05-29T05:29:03;95006.81;;;18.30;100.00
8075;BME280;4080;42.676;23.372;2023-05-29T05:31:29;95004.59;;;18.33;100.00
8075;BME280;4080;42.676;23.372;2023-05-29T05:33:56;95003.03;;;18.31;100.00
8075;BME280;4080;42.676;23.372;2023-05-29T05:36:23;95010.25;;;18.40;100.00
8075;BME280;4080;42.676;23.372;2023-05-29T05:38:50;95004.59;;;18.50;100.00
8075;BME280;4080;42.676;23.372;2023-05-29T05:41:16;95012.09;;;18.65;100.00
8075;BME280;4080;42.676;23.372;2023-05-29T05:43:44;95011.00;;;18.75;100.00
8075;BME280;4080;42.676;23.372;2023-05-29T05:46:11;95006.41;;;18.84;100.00
8075;BME280;4080;42.676;23.372;2023-05-29T05:48:39;95004.00;;;19.00;100.00
8075;BME280;4080;42.676;23.372;2023-05-29T05:51:06;95012.72;;;19.17;100.00
8075;BME280;4080;42.676;23.372;2023-05-29T05:53:33;95003.88;;;19.26;100.00
8075;BME280;4080;42.676;23.372;2023-05-29T05:55:59;95012.16;;;19.41;100.00
8075;BME280;4080;42.676;23.372;2023-05-29T05:58:26;95008.81;;;19.53;100.00
8075;BME280;4080;42.676;23.372;2023-05-29T06:00:54;95017.13;;;19.60;100.00
8075;BME280;4080;42.676;23.372;2023-05-29T06:03:22;94988.72;;;19.38;100.00
8075;BME280;4080;42.676;23.372;2023-05-29T06:05:49;95016.13;;;19.35;100.00
8075;BME280;4080;42.676;23.372;2023-05-29T06:08:18;95011.31;;;19.20;100.00
8075;BME280;4080;42.676;23.372;2023-05-29T06:10:44;95005.81;;;19.16;100.00
8075;BME280;4080;42.676;23.372;2023-05-29T06:13:11;95001.44;;;19.12;100.00
8075;BME280;4080;42.676;23.372;2023-05-29T06:15:38;95011.03;;;19.13;100.00
8075;BME280;4080;42.676;23.372;2023-05-29T06:18:07;95011.94;;;19.17;100.00
8075;BME280;4080;42.676;23.372;2023-05-29T06:20:33;95016.91;;;19.36;100.00
8075;BME280;4080;42.676;23.372;2023-05-29T06:23:00;95006.84;;;19.92;100.00
8075;BME280;4080;42.676;23.372;2023-05-29T06:25:27;94980.59;;;20.39;100.00
8075;BME280;4080;42.676;23.372;2023-05-29T06:27:58;95024.91;;;21.15;100.00
8075;BME280;4080;42.676;23.372;2023-05-29T06:30:25;95021.25;;;21.56;100.00
8075;BME280;4080;42.676;23.372;2023-05-29T06:32:52;95015.84;;;21.92;100.00
8075;BME280;4080;42.676;23.372;2023-05-29T06:35:20;95027.72;;;22.31;100.00
8075;BME280;4080;42.676;23.372;2023-05-29T06:37:47;95031.88;;;22.57;100.00
8075;BME280;4080;42.676;23.372;2023-05-29T06:40:13;94987.84;;;22.61;100.00
8075;BME280;4080;42.676;23.372;2023-05-29T06:42:40;95032.88;;;23.24;100.00
8075;BME280;4080;42.676;23.372;2023-05-29T06:45:10;95038.97;;;23.37;100.00
8075;BME280;4080;42.676;23.372;2023-05-29T06:47:37;95037.94;;;23.57;100.00
8075;BME280;4080;42.676;23.372;2023-05-29T06:50:04;95042.00;;;23.67;100.00
8075;BME280;4080;42.676;23.372;2023-05-29T06:52:32;95043.16;;;23.66;100.00
8075;BME280;4080;42.676;23.372;2023-05-29T06:54:59;95036.13;;;23.61;100.00
8075;BME280;4080;42.676;23.372;2023-05-29T06:57:26;95029.22;;;23.48;100.00
8075;BME280;4080;42.676;23.372;2023-05-29T06:59:54;95035.00;;;23.62;100.00
8075;BME280;4080;42.676;23.372;2023-05-29T07:02:20;95034.31;;;23.84;100.00
8075;BME280;4080;42.676;23.372;2023-05-29T07:04:47;95034.81;;;24.25;100.00
8075;BME280;4080;42.676;23.372;2023-05-29T07:07:14;95036.84;;;24.28;100.00
8075;BME280;4080;42.676;23.372;2023-05-29T07:09:42;95032.53;;;24.08;100.00
8075;BME280;4080;42.676;23.372;2023-05-29T07:12:08;95036.56;;;23.98;100.00
8075;BME280;4080;42.676;23.372;2023-05-29T07:14:35;95036.16;;;23.80;100.00
8075;BME280;4080;42.676;23.372;2023-05-29T07:17:02;95038.28;;;23.56;100.00
8075;BME280;4080;42.676;23.372;2023-05-29T07:19:28;95046.25;;;23.36;100.00
8075;BME280;4080;42.676;23.372;2023-05-29T07:21:57;95040.16;;;23.23;100.00
8075;BME280;4080;42.676;23.372;2023-05-29T07:24:24;95032.44;;;23.06;100.00
8075;BME280;4080;42.676;23.372;2023-05-29T07:26:52;95025.81;;;22.88;100.00
